createdAt,value
2022-09-11T00:02:07.623Z,1.52
2022-09-11T00:05:10.655Z,1.48
2022-09-11T00:08:16.815Z,1.55
2022-09-11T00:14:22.590Z,1.80
2022-09-11T00:17:24.342Z,1.73
2022-09-11T00:20:25.968Z,1.90
2022-09-11T00:23:28.305Z,1.80
2022-09-11T00:26:30.107Z,1.58
2022-09-11T00:29:32.494Z,1.80
2022-09-11T00:32:34.326Z,1.63
2022-09-11T00:35:36.113Z,1.83
2022-09-11T00:38:38.944Z,1.60
2022-09-11T00:41:44.784Z,1.80
2022-09-11T00:44:49.522Z,1.70
2022-09-11T00:47:53.481Z,1.67
2022-09-11T00:50:59.182Z,1.50
2022-09-11T00:54:03.953Z,1.55
2022-09-11T00:57:08.192Z,1.60
2022-09-11T01:00:11.618Z,2.10
2022-09-11T01:03:13.716Z,1.73
2022-09-11T01:06:16.232Z,1.60
2022-09-11T01:09:17.972Z,1.60
2022-09-11T01:12:36.644Z,1.80
2022-09-11T01:15:49.957Z,1.67
2022-09-11T01:18:57.819Z,1.80
2022-09-11T01:22:33.480Z,1.80
2022-09-11T01:25:57.612Z,1.48
2022-09-11T01:29:29.034Z,1.50
2022-09-11T01:32:55.456Z,1.70
2022-09-11T01:36:19.564Z,1.60
2022-09-11T01:39:27.237Z,1.60
2022-09-11T01:42:33.195Z,1.70
2022-09-11T01:45:37.346Z,1.77
2022-09-11T01:48:48.720Z,1.63
2022-09-11T01:51:56.963Z,1.60
2022-09-11T01:55:04.977Z,1.73
2022-09-11T01:58:15.385Z,1.50
2022-09-11T02:01:28.777Z,1.50
2022-09-11T02:04:37.438Z,1.58
2022-09-11T02:07:48.658Z,1.73
2022-09-11T02:10:54.000Z,1.60
2022-09-11T02:14:04.369Z,1.50
2022-09-11T02:17:36.674Z,1.48
2022-09-11T02:20:39.398Z,1.60
2022-09-11T02:23:41.570Z,1.60
2022-09-11T02:26:47.892Z,1.52
2022-09-11T02:29:50.754Z,1.70
2022-09-11T02:32:56.088Z,1.42
2022-09-11T02:36:22.327Z,1.40
2022-09-11T02:40:02.665Z,1.40
2022-09-11T02:43:38.662Z,1.52
2022-09-11T02:46:52.707Z,1.70
2022-09-11T02:49:54.522Z,1.50
2022-09-11T02:53:09.876Z,1.40
2022-09-11T02:56:32.089Z,1.50
2022-09-11T02:59:41.027Z,1.60
2022-09-11T03:02:43.238Z,1.58
2022-09-11T03:05:45.551Z,1.48
2022-09-11T03:08:47.696Z,1.70
2022-09-11T03:11:50.190Z,1.58
2022-09-11T03:14:52.234Z,1.52
2022-09-11T03:17:56.646Z,1.60
2022-09-11T03:20:58.295Z,1.80
2022-09-11T03:24:01.221Z,1.50
2022-09-11T03:27:03.237Z,1.60
2022-09-11T03:30:06.957Z,1.60
2022-09-11T03:33:09.041Z,1.60
2022-09-11T03:36:12.104Z,1.50
2022-09-11T03:39:14.045Z,1.70
2022-09-11T03:42:16.146Z,1.50
2022-09-11T03:45:17.926Z,1.60
2022-09-11T03:48:19.841Z,1.63
2022-09-11T03:51:22.295Z,1.50
2022-09-11T03:54:24.009Z,1.73
2022-09-11T03:57:26.512Z,1.60
2022-09-11T04:00:29.703Z,1.38
2022-09-11T04:03:32.227Z,1.42
2022-09-11T04:06:34.075Z,1.58
2022-09-11T04:09:37.963Z,1.60
2022-09-11T04:12:42.078Z,1.75
2022-09-11T04:15:43.917Z,1.65
2022-09-11T04:18:47.055Z,1.48
2022-09-11T04:21:49.825Z,1.60
2022-09-11T04:24:52.045Z,2.17
2022-09-11T04:27:54.240Z,1.65
2022-09-11T04:30:57.493Z,1.60
2022-09-11T04:33:59.697Z,1.48
2022-09-11T04:37:06.218Z,1.63
2022-09-11T04:40:10.118Z,1.27
2022-09-11T04:43:12.592Z,1.55
2022-09-11T04:46:16.535Z,1.70
2022-09-11T04:49:19.496Z,1.70
2022-09-11T04:52:22.351Z,1.60
2022-09-11T04:55:25.419Z,1.70
2022-09-11T04:58:27.273Z,1.65
2022-09-11T05:01:31.232Z,1.85
2022-09-11T05:04:33.923Z,1.60
2022-09-11T05:07:36.825Z,1.63
2022-09-11T05:10:39.863Z,1.48
2022-09-11T05:13:43.034Z,1.80
2022-09-11T05:16:45.573Z,1.63
2022-09-11T05:19:49.320Z,1.67
2022-09-11T05:22:51.538Z,1.60
2022-09-11T05:25:58.092Z,1.95
2022-09-11T05:29:03.620Z,1.90
2022-09-11T05:32:08.239Z,1.80
2022-09-11T05:35:09.954Z,1.70
2022-09-11T05:38:12.669Z,1.70
2022-09-11T05:41:15.674Z,1.80
2022-09-11T05:44:18.730Z,1.77
2022-09-11T05:47:21.048Z,1.50
2022-09-11T05:50:25.899Z,1.90
2022-09-11T05:53:32.206Z,2.10
2022-09-11T05:56:34.481Z,1.63
2022-09-11T06:02:42.448Z,1.73
2022-09-11T06:05:44.163Z,1.48
2022-09-11T06:08:47.998Z,1.55
2022-09-11T06:11:49.722Z,1.75
2022-09-11T06:14:51.881Z,1.92
2022-09-11T06:17:53.846Z,1.55
2022-09-11T06:21:02.868Z,1.80
2022-09-11T06:24:10.724Z,1.80
2022-09-11T06:27:12.642Z,1.70
2022-09-11T06:30:18.560Z,1.77
2022-09-11T06:33:22.060Z,1.95
2022-09-11T06:36:27.657Z,1.70
2022-09-11T06:39:31.765Z,1.80
2022-09-11T06:42:33.982Z,2.00
2022-09-11T06:45:36.341Z,1.95
2022-09-11T06:48:44.845Z,1.77
2022-09-11T06:51:47.713Z,1.90
2022-09-11T06:54:50.602Z,1.90
2022-09-11T06:57:53.872Z,2.13
2022-09-11T07:04:15.626Z,1.60
2022-09-11T07:07:18.692Z,1.70
2022-09-11T07:10:20.572Z,2.05
2022-09-11T07:13:27.517Z,1.70
2022-09-11T07:16:30.319Z,1.80
2022-09-11T07:19:33.775Z,1.95
2022-09-11T07:22:36.915Z,2.03
2022-09-11T07:25:38.748Z,1.92
2022-09-11T07:28:41.530Z,1.98
2022-09-11T07:31:43.224Z,2.10
2022-09-11T07:34:47.732Z,2.30
2022-09-11T07:37:50.942Z,2.38
2022-09-11T07:40:54.500Z,2.20
2022-09-11T07:44:03.444Z,2.13
2022-09-11T07:47:06.858Z,2.20
2022-09-11T07:50:14.032Z,2.15
2022-09-11T07:53:16.807Z,2.00
2022-09-11T07:56:23.225Z,2.05
2022-09-11T07:59:25.260Z,2.33
2022-09-11T08:02:28.193Z,2.20
2022-09-11T08:05:30.213Z,2.40
2022-09-11T08:08:33.568Z,2.40
2022-09-11T08:11:45.967Z,2.35
2022-09-11T08:14:48.161Z,5.47
2022-09-11T08:17:54.494Z,3.17
2022-09-11T08:21:12.583Z,2.95
2022-09-11T08:24:17.142Z,3.03
2022-09-11T08:27:20.005Z,3.00
2022-09-11T08:30:22.052Z,2.72
2022-09-11T08:33:23.960Z,2.97
2022-09-11T08:36:25.844Z,2.90
2022-09-11T08:39:28.050Z,3.72
2022-09-11T08:42:32.451Z,3.38
2022-09-11T08:45:35.941Z,3.47
2022-09-11T08:48:45.828Z,3.13
2022-09-11T08:51:50.020Z,3.15
2022-09-11T08:54:55.997Z,3.30
2022-09-11T08:58:12.993Z,3.38
2022-09-11T09:01:24.901Z,3.10
2022-09-11T09:04:46.941Z,3.28
2022-09-11T09:08:04.988Z,3.33
2022-09-11T09:11:17.254Z,3.45
2022-09-11T09:14:32.176Z,3.50
2022-09-11T09:17:34.136Z,3.33
2022-09-11T09:20:42.499Z,3.90
2022-09-11T09:23:56.260Z,3.25
2022-09-11T09:26:59.003Z,3.20
2022-09-11T09:30:05.890Z,3.22
2022-09-11T09:33:31.286Z,3.00
2022-09-11T09:36:56.219Z,3.45
2022-09-11T09:40:01.012Z,3.15
2022-09-11T09:43:15.504Z,2.75
2022-09-11T09:46:37.416Z,3.53
2022-09-11T09:49:39.576Z,3.72
2022-09-11T09:52:41.442Z,3.28
2022-09-11T09:55:44.694Z,3.50
2022-09-11T09:59:01.117Z,3.25
2022-09-11T10:05:22.988Z,3.00
2022-09-11T10:08:33.841Z,4.00
2022-09-11T10:11:35.658Z,3.45
2022-09-11T10:14:52.278Z,3.38
2022-09-11T10:18:17.081Z,3.58
2022-09-11T10:21:29.713Z,3.50
2022-09-11T10:24:31.553Z,3.65
2022-09-11T10:27:39.157Z,3.53
2022-09-11T10:30:58.052Z,3.33
2022-09-11T10:34:01.107Z,3.72
2022-09-11T10:37:09.776Z,3.45
2022-09-11T10:40:22.828Z,3.38
2022-09-11T10:43:32.023Z,3.50
2022-09-11T10:46:41.102Z,3.47
2022-09-11T10:49:43.918Z,2.83
2022-09-11T10:52:57.716Z,2.88
2022-09-11T10:56:03.522Z,2.88
2022-09-11T11:02:29.625Z,3.20
2022-09-11T11:05:56.214Z,2.85
2022-09-11T11:12:32.707Z,2.67
2022-09-11T11:15:52.920Z,3.00
2022-09-11T11:19:03.972Z,3.10
2022-09-11T11:22:17.846Z,2.92
2022-09-11T11:25:34.353Z,3.00
2022-09-11T11:29:09.580Z,2.83
2022-09-11T11:32:39.598Z,2.97
2022-09-11T11:36:08.767Z,2.50
2022-09-11T11:39:30.120Z,2.70
2022-09-11T11:42:40.207Z,2.65
2022-09-11T11:45:49.997Z,2.90
2022-09-11T11:49:10.988Z,2.80
2022-09-11T11:52:36.918Z,2.42
2022-09-11T11:56:18.619Z,2.75
2022-09-11T11:59:41.572Z,2.60
2022-09-11T12:02:53.110Z,2.50
2022-09-11T12:05:54.768Z,2.40
2022-09-11T12:08:57.475Z,2.38
2022-09-11T12:12:06.256Z,2.30
2022-09-11T12:15:10.293Z,2.65
2022-09-11T12:18:12.011Z,2.55
2022-09-11T12:21:23.097Z,2.45
2022-09-11T12:25:10.909Z,2.38
2022-09-11T12:28:25.396Z,2.00
2022-09-11T12:31:50.909Z,2.15
2022-09-11T12:35:01.690Z,2.20
2022-09-11T12:38:06.296Z,2.38
2022-09-11T12:41:37.833Z,2.40
2022-09-11T12:44:45.633Z,2.20
2022-09-11T12:47:47.416Z,2.05
2022-09-11T12:50:54.649Z,2.20
2022-09-11T12:54:03.121Z,2.30
2022-09-11T12:57:29.504Z,2.38
2022-09-11T13:03:46.573Z,1.92
2022-09-11T13:07:08.539Z,2.28
2022-09-11T13:10:35.339Z,2.20
2022-09-11T13:13:44.719Z,2.10
2022-09-11T13:17:40.473Z,2.10
2022-09-11T13:20:41.175Z,1.98
2022-09-11T13:23:51.351Z,2.17
2022-09-11T13:26:59.793Z,2.10
2022-09-11T13:30:01.924Z,1.90
2022-09-11T13:33:09.189Z,1.70
2022-09-11T13:36:13.090Z,1.75
2022-09-11T13:39:17.490Z,1.67
2022-09-11T13:42:23.417Z,1.50
2022-09-11T13:45:28.216Z,1.88
2022-09-11T13:48:29.892Z,2.10
2022-09-11T13:51:32.963Z,1.70
2022-09-11T13:54:43.605Z,1.50
2022-09-11T13:58:21.471Z,1.67
2022-09-11T14:01:23.700Z,1.60
2022-09-11T14:04:27.368Z,1.70
2022-09-11T14:07:29.143Z,1.67
2022-09-11T14:10:35.191Z,1.85
2022-09-11T14:13:49.434Z,1.60
2022-09-11T14:17:01.412Z,1.73
2022-09-11T14:20:03.644Z,1.60
2022-09-11T14:23:06.669Z,1.70
2022-09-11T14:26:18.437Z,1.70
2022-09-11T14:29:36.342Z,1.73
2022-09-11T14:32:39.203Z,1.73
2022-09-11T14:36:50.933Z,1.65
2022-09-11T14:39:56.750Z,1.75
2022-09-11T14:42:58.629Z,1.80
2022-09-11T14:46:02.112Z,1.90
2022-09-11T14:49:03.862Z,1.70
2022-09-11T14:52:06.728Z,1.85
2022-09-11T14:55:14.587Z,1.90
2022-09-11T14:58:16.421Z,1.80
2022-09-11T15:01:18.181Z,1.70
2022-09-11T15:04:23.029Z,1.70
2022-09-11T15:07:25.545Z,1.70
2022-09-11T15:10:27.531Z,1.60
2022-09-11T15:13:29.380Z,1.70
2022-09-11T15:16:31.506Z,1.90
2022-09-11T15:19:35.149Z,1.60
2022-09-11T15:22:38.333Z,1.52
2022-09-11T15:25:41.021Z,1.77
2022-09-11T15:28:42.792Z,1.80
2022-09-11T15:31:44.549Z,1.80
2022-09-11T15:34:47.673Z,1.90
2022-09-11T15:37:55.547Z,1.70
2022-09-11T15:40:57.169Z,1.60
2022-09-11T15:43:58.899Z,1.60
2022-09-11T15:47:00.636Z,1.52
2022-09-11T15:50:02.290Z,1.50
2022-09-11T15:53:03.957Z,1.60
2022-09-11T15:56:07.095Z,1.50
2022-09-11T15:59:11.585Z,1.40
2022-09-11T16:02:13.319Z,1.50
2022-09-11T16:05:15.405Z,1.60
2022-09-11T16:08:17.160Z,1.40
2022-09-11T16:11:21.274Z,1.50
2022-09-11T16:14:28.807Z,1.60
2022-09-11T16:17:32.495Z,1.40
2022-09-11T16:20:34.135Z,1.35
2022-09-11T16:23:36.990Z,1.50
2022-09-11T16:26:38.744Z,1.35
2022-09-11T16:33:02.437Z,1.50
2022-09-11T16:36:07.419Z,1.50
2022-09-11T16:39:12.761Z,1.60
2022-09-11T16:42:14.666Z,1.40
2022-09-11T16:45:16.381Z,1.60
2022-09-11T16:48:18.279Z,1.70
2022-09-11T16:51:20.652Z,1.38
2022-09-11T16:54:22.951Z,1.42
2022-09-11T16:57:27.300Z,1.35
2022-09-11T17:00:29.017Z,1.38
2022-09-11T17:03:30.729Z,1.40
2022-09-11T17:06:32.809Z,1.40
2022-09-11T17:09:34.462Z,1.70
2022-09-11T17:12:37.252Z,1.60
2022-09-11T17:15:40.668Z,2.17
2022-09-11T17:18:45.567Z,1.80
2022-09-11T17:21:47.346Z,2.20
2022-09-11T17:24:48.964Z,1.80
2022-09-11T17:27:50.799Z,1.63
2022-09-11T17:30:52.556Z,1.70
2022-09-11T17:33:54.235Z,1.70
2022-09-11T17:36:55.854Z,1.83
2022-09-11T17:39:58.564Z,1.70
2022-09-11T17:43:00.677Z,1.63
2022-09-11T17:46:05.117Z,1.95
2022-09-11T17:49:07.341Z,1.83
2022-09-11T17:52:09.748Z,1.60
2022-09-11T17:55:11.590Z,1.80
2022-09-11T17:58:13.238Z,1.90
2022-09-11T18:01:17.089Z,1.55
2022-09-11T18:04:18.958Z,1.80
2022-09-11T18:07:20.669Z,1.60
2022-09-11T18:10:22.633Z,1.70
2022-09-11T18:13:24.291Z,1.70
2022-09-11T18:16:26.180Z,1.92
2022-09-11T18:19:28.364Z,1.75
2022-09-11T18:22:33.455Z,1.58
2022-09-11T18:25:40.885Z,1.70
2022-09-11T18:32:10.893Z,1.85
2022-09-11T18:35:28.725Z,1.70
2022-09-11T18:38:38.374Z,1.60
2022-09-11T18:42:10.276Z,1.67
2022-09-11T18:45:53.064Z,1.70
2022-09-11T18:49:07.965Z,1.75
2022-09-11T18:52:22.661Z,1.90
2022-09-11T18:55:30.093Z,1.52
2022-09-11T18:58:33.886Z,1.80
2022-09-11T19:01:41.861Z,1.70
2022-09-11T19:04:48.142Z,1.80
2022-09-11T19:08:00.130Z,1.88
2022-09-11T19:11:20.421Z,1.88
2022-09-11T19:14:43.992Z,1.90
2022-09-11T19:18:01.706Z,1.80
2022-09-11T19:21:26.937Z,1.80
2022-09-11T19:24:30.298Z,2.00
2022-09-11T19:27:47.258Z,1.77
2022-09-11T19:30:58.388Z,1.80
2022-09-11T19:34:03.979Z,1.98
2022-09-11T19:37:05.960Z,2.05
2022-09-11T19:40:07.997Z,1.95
2022-09-11T19:43:11.854Z,1.90
2022-09-11T19:46:22.009Z,2.03
2022-09-11T19:49:24.096Z,1.90
2022-09-11T19:52:29.720Z,2.05
2022-09-11T19:55:35.313Z,2.30
2022-09-11T19:58:38.914Z,2.25
2022-09-11T20:01:40.894Z,2.45
2022-09-11T20:04:42.711Z,2.22
2022-09-11T20:07:44.457Z,2.25
2022-09-11T20:10:47.279Z,2.50
2022-09-11T20:13:49.514Z,2.80
2022-09-11T20:16:51.294Z,2.90
2022-09-11T20:19:53.230Z,2.80
2022-09-11T20:23:00.549Z,3.05
2022-09-11T20:26:16.935Z,3.03
2022-09-11T20:29:19.212Z,2.78
2022-09-11T20:32:21.095Z,2.92
2022-09-11T20:35:23.284Z,3.08
2022-09-11T20:38:25.193Z,3.00
2022-09-11T20:41:30.167Z,2.95
2022-09-11T20:44:36.743Z,3.00
2022-09-11T20:47:39.645Z,3.05
2022-09-11T20:50:41.588Z,2.88
2022-09-11T20:53:45.824Z,3.00
2022-09-11T20:56:47.541Z,3.05
2022-09-11T20:59:50.005Z,2.95
2022-09-11T21:02:52.439Z,3.35
2022-09-11T21:05:56.084Z,2.67
2022-09-11T21:09:00.993Z,2.97
2022-09-11T21:12:03.163Z,3.30
2022-09-11T21:15:07.702Z,3.03
2022-09-11T21:18:09.984Z,3.50
2022-09-11T21:21:11.757Z,3.25
2022-09-11T21:24:14.146Z,3.13
2022-09-11T21:27:15.825Z,2.85
2022-09-11T21:30:17.679Z,3.13
2022-09-11T21:33:19.718Z,3.10
2022-09-11T21:36:21.567Z,2.50
2022-09-11T21:39:23.354Z,3.20
2022-09-11T21:42:25.248Z,2.95
2022-09-11T21:45:27.172Z,2.70
2022-09-11T21:48:33.603Z,2.80
2022-09-11T21:51:37.307Z,2.88
2022-09-11T21:54:39.357Z,2.78
2022-09-11T21:57:41.172Z,2.90
2022-09-11T22:00:43.466Z,2.65
2022-09-11T22:03:46.124Z,2.80
2022-09-11T22:06:48.037Z,3.13
2022-09-11T22:09:49.736Z,2.75
2022-09-11T22:12:51.735Z,2.97
2022-09-11T22:15:53.590Z,2.97
2022-09-11T22:18:55.458Z,3.08
2022-09-11T22:21:57.304Z,2.85
2022-09-11T22:24:59.261Z,2.80
2022-09-11T22:28:01.032Z,2.95
2022-09-11T22:31:11.128Z,3.15
2022-09-11T22:34:14.441Z,2.97
2022-09-11T22:37:16.897Z,3.00
2022-09-11T22:40:19.191Z,2.88
2022-09-11T22:43:20.984Z,2.70
2022-09-11T22:46:24.049Z,2.92
2022-09-11T22:49:25.816Z,2.85
2022-09-11T22:52:28.035Z,3.00
2022-09-11T22:55:30.030Z,2.90
2022-09-11T22:58:32.617Z,3.25
2022-09-11T23:01:35.018Z,2.80
2022-09-11T23:04:36.701Z,3.03
2022-09-11T23:07:38.869Z,2.90
2022-09-11T23:10:42.342Z,3.05
2022-09-11T23:13:44.639Z,2.72
2022-09-11T23:16:46.500Z,2.80
2022-09-11T23:19:48.827Z,2.75
2022-09-11T23:22:50.840Z,2.97
2022-09-11T23:25:52.689Z,2.97
2022-09-11T23:28:56.011Z,2.90
2022-09-11T23:31:57.810Z,3.00
2022-09-11T23:34:59.644Z,2.67
2022-09-11T23:38:01.380Z,2.60
2022-09-11T23:41:03.810Z,2.83
2022-09-11T23:44:06.056Z,3.05
2022-09-11T23:47:08.124Z,2.42
2022-09-11T23:50:10.193Z,2.60
2022-09-11T23:53:11.983Z,2.75
2022-09-11T23:56:15.070Z,2.75
2022-09-11T23:59:17.312Z,2.38
